Time;durP1;ratioP1;P1;durP2;ratioP2;P2;SDS_P1;SDS_P2;PMS_P1;PMS_P2;Temp;Humidity;BMP_temperature;BMP_pressure;BME280_temperature;BME280_humidity;BME280_pressure;Samples;Min_cycle;Max_cycle;Signal;HPM_P1;HPM_P2
2021/12/01 00:01:33;;;;;;;7.90;7.07;;;;;;;10.11;76.11;98272.28;5050247;28;20052;-62
2021/12/01 00:04:00;;;;;;;9.85;8.57;;;;;;;10.14;76.30;98274.66;5049016;28;20136;-63
2021/12/01 00:06:27;;;;;;;10.18;8.35;;;;;;;10.17;76.35;98261.28;5050293;28;20068;-64
2021/12/01 00:08:54;;;;;;;10.30;8.93;;;;;;;10.19;76.48;98256.72;5050306;28;20118;-64
2021/12/01 00:11:20;;;;;;;11.20;9.35;;;;;;;10.24;76.58;98256.38;5050143;28;20056;-62
2021/12/01 00:13:47;;;;;;;11.20;9.32;;;;;;;10.27;76.45;98249.06;5050285;28;20452;-64
2021/12/01 00:16:14;;;;;;;12.75;10.07;;;;;;;10.30;76.60;98240.09;5032723;28;20504;-63
2021/12/01 00:18:41;;;;;;;14.02;10.85;;;;;;;10.34;76.59;98236.25;5049801;28;20118;-63
2021/12/01 00:21:08;;;;;;;14.32;11.68;;;;;;;10.38;76.60;98228.94;5050067;28;20456;-64
2021/12/01 00:23:34;;;;;;;13.75;11.38;;;;;;;10.40;76.73;98222.59;5050105;28;20049;-63
2021/12/01 00:26:02;;;;;;;14.90;12.18;;;;;;;10.45;76.63;98206.47;5050388;28;20098;-62
2021/12/01 00:28:29;;;;;;;14.90;12.10;;;;;;;10.47;76.54;98209.81;5048791;28;20056;-63
2021/12/01 00:30:57;;;;;;;17.33;13.55;;;;;;;10.49;76.74;98202.63;5049713;28;20277;-65
2021/12/01 00:33:24;;;;;;;17.58;13.35;;;;;;;10.53;76.54;98190.06;5049993;28;20080;-63
2021/12/01 00:35:56;;;;;;;17.58;12.98;;;;;;;10.54;77.17;98182.03;5050345;28;20408;-63
2021/12/01 00:38:24;;;;;;;16.02;13.13;;;;;;;10.58;76.79;98194.97;5050072;28;20056;-64
2021/12/01 00:40:51;;;;;;;19.10;14.73;;;;;;;10.60;76.81;98177.22;5048709;28;20057;-63
2021/12/01 00:43:19;;;;;;;16.95;14.30;;;;;;;10.60;76.89;98167.56;5050205;28;20404;-64
2021/12/01 00:45:55;;;;;;;20.60;14.73;;;;;;;10.64;76.95;98163.72;5050072;28;20067;-63
2021/12/01 00:48:23;;;;;;;21.88;16.35;;;;;;;10.65;77.02;98164.56;5048666;28;20060;-63
2021/12/01 00:50:51;;;;;;;18.98;15.52;;;;;;;10.66;77.09;98148.59;5049709;28;20179;-63
2021/12/01 00:53:18;;;;;;;23.65;15.70;;;;;;;10.68;76.98;98149.34;5048534;28;20053;-63
2021/12/01 00:55:45;;;;;;;19.33;15.27;;;;;;;10.70;77.17;98151.84;5048684;28;20386;-63
2021/12/01 00:58:13;;;;;;;21.45;16.60;;;;;;;10.73;77.00;98140.22;5049540;28;20052;-64
2021/12/01 01:00:41;;;;;;;22.45;15.85;;;;;;;10.74;77.05;98131.34;5048356;28;20045;-63
2021/12/01 01:03:08;;;;;;;20.45;15.68;;;;;;;10.76;77.20;98127.63;5048723;28;20513;-63
2021/12/01 01:05:36;;;;;;;19.20;15.57;;;;;;;10.78;77.09;98120.44;5049973;28;20045;-64
2021/12/01 01:08:04;;;;;;;19.50;15.85;;;;;;;10.81;76.99;98107.00;5048578;28;20061;-63
2021/12/01 01:10:45;;;;;;;19.08;15.02;;;;;;;10.84;77.03;98110.38;5048271;28;20044;-63
2021/12/01 01:18:48;;;;;;;18.10;14.20;;;;;;;10.89;77.02;98093.22;5053212;28;20063;-64
2021/12/01 01:21:15;;;;;;;21.27;14.63;;;;;;;10.92;76.93;98087.66;5051509;28;20422;-64
2021/12/01 01:23:43;;;;;;;17.00;13.73;;;;;;;10.94;77.21;98085.75;5053269;28;20060;-64
2021/12/01 01:26:13;;;;;;;18.98;13.18;;;;;;;10.94;77.43;98080.50;5052011;28;20500;-63
2021/12/01 01:28:41;;;;;;;14.90;12.10;;;;;;;10.97;77.19;98074.13;5051960;28;20061;-63
2021/12/01 01:31:09;;;;;;;15.27;11.98;;;;;;;10.99;77.36;98066.91;5051441;28;20378;-64
2021/12/01 01:33:36;;;;;;;13.65;12.05;;;;;;;11.01;77.31;98056.25;5051781;28;20099;-63
2021/12/01 01:36:03;;;;;;;12.30;10.82;;;;;;;11.04;77.19;98056.84;5051859;28;20053;-64
2021/12/01 01:38:31;;;;;;;16.30;11.20;;;;;;;11.06;77.47;98047.00;5053023;28;20049;-64
2021/12/01 01:41:04;;;;;;;11.57;10.38;;;;;;;11.06;77.61;98043.53;5051068;28;20045;-63
2021/12/01 01:43:31;;;;;;;10.80;9.68;;;;;;;11.10;77.42;98044.91;5051548;28;20052;-63
2021/12/01 01:45:58;;;;;;;11.68;10.48;;;;;;;11.11;77.53;98020.28;5052641;28;20057;-65
2021/12/01 01:48:30;;;;;;;12.05;9.52;;;;;;;11.12;77.54;98040.38;5052925;28;20085;-63
2021/12/01 01:51:03;;;;;;;12.30;9.48;;;;;;;11.10;77.49;98030.94;5052521;28;20048;-63
2021/12/01 01:53:33;;;;;;;9.80;8.80;;;;;;;11.14;77.45;98025.25;5051220;28;20053;-63
2021/12/01 01:56:02;;;;;;;8.68;7.82;;;;;;;11.14;77.31;98011.28;5052608;28;20136;-63
2021/12/01 01:58:29;;;;;;;8.68;7.68;;;;;;;11.15;77.44;98016.41;5051121;28;20114;-63
2021/12/01 02:01:08;;;;;;;7.45;6.75;;;;;;;11.13;77.53;98005.16;5052151;28;20049;-63
2021/12/01 02:03:42;;;;;;;7.70;6.68;;;;;;;11.16;77.38;97996.16;5051455;28;20053;-63
2021/12/01 02:06:10;;;;;;;7.38;6.65;;;;;;;11.18;77.25;97996.88;5050993;28;20045;-64
2021/12/01 02:08:40;;;;;;;7.68;6.40;;;;;;;11.16;77.54;97988.25;5052414;28;20061;-63
2021/12/01 02:11:10;;;;;;;6.47;5.78;;;;;;;11.15;77.12;97968.16;5050737;28;20052;-63
2021/12/01 02:13:40;;;;;;;8.05;5.65;;;;;;;11.15;77.07;97955.00;5052522;28;20052;-63
2021/12/01 02:16:07;;;;;;;6.05;5.35;;;;;;;11.16;77.10;97964.56;5050887;28;20057;-63
2021/12/01 02:18:35;;;;;;;6.30;4.05;;;;;;;11.15;77.04;97955.00;5052184;28;20053;-63
2021/12/01 02:21:07;;;;;;;7.10;4.57;;;;;;;11.12;77.13;97950.84;5050643;28;20607;-62
2021/12/01 02:23:36;;;;;;;4.45;4.05;;;;;;;11.11;77.16;97943.91;5050651;28;20049;-63
2021/12/01 02:26:04;;;;;;;3.63;3.33;;;;;;;11.08;77.16;97929.22;5052105;28;20049;-63
2021/12/01 02:28:32;;;;;;;3.90;3.50;;;;;;;11.07;77.06;97930.16;5052038;28;20056;-63
2021/12/01 02:30:59;;;;;;;2.97;2.78;;;;;;;11.08;77.05;97931.00;5051552;28;20522;-63
2021/12/01 02:33:26;;;;;;;3.13;2.80;;;;;;;11.07;76.69;97926.72;5052055;28;20106;-62
2021/12/01 02:35:53;;;;;;;3.10;2.80;;;;;;;11.05;77.05;97916.31;5051841;28;20045;-63
2021/12/01 02:38:21;;;;;;;3.08;2.78;;;;;;;11.02;77.22;97913.97;5051714;28;20049;-64
2021/12/01 02:40:48;;;;;;;2.60;2.40;;;;;;;11.04;77.12;97888.34;5051711;28;20063;-63
2021/12/01 02:43:15;;;;;;;2.90;2.38;;;;;;;11.03;76.95;97906.91;5050529;28;20061;-64
2021/12/01 02:45:43;;;;;;;3.20;2.28;;;;;;;11.01;76.90;97891.22;5051728;28;20095;-64
2021/12/01 02:48:12;;;;;;;2.65;2.40;;;;;;;11.01;76.90;97874.59;5051673;28;20132;-64
2021/12/01 02:50:42;;;;;;;2.65;2.45;;;;;;;10.97;77.00;97863.50;5051478;28;20056;-64
2021/12/01 02:53:10;;;;;;;2.13;1.92;;;;;;;10.98;76.92;97875.69;5051434;28;20052;-63
2021/12/01 02:55:51;;;;;;;2.30;2.05;;;;;;;10.91;77.27;97861.41;5050157;28;20053;-64
2021/12/01 02:58:19;;;;;;;2.03;1.83;;;;;;;10.93;76.94;97852.44;5051353;28;20060;-63
2021/12/01 03:00:47;;;;;;;2.30;2.10;;;;;;;10.93;76.84;97854.22;5050035;28;20045;-63
2021/12/01 03:03:14;;;;;;;2.38;2.17;;;;;;;10.88;77.12;97851.19;5051168;28;20535;-63
2021/12/01 03:05:46;;;;;;;2.95;2.03;;;;;;;10.85;77.23;97844.41;5051346;28;20072;-63
2021/12/01 03:08:18;;;;;;;2.17;1.80;;;;;;;10.81;77.19;97841.19;5050317;28;20068;-64
2021/12/01 03:10:49;;;;;;;2.20;2.10;;;;;;;10.81;77.09;97830.66;5051107;28;20053;-65
2021/12/01 03:13:18;;;;;;;2.13;2.00;;;;;;;10.80;76.93;97829.00;5050013;28;20052;-63
2021/12/01 03:15:46;;;;;;;1.92;1.80;;;;;;;10.81;77.06;97822.75;5049826;28;20049;-64
2021/12/01 03:18:14;;;;;;;2.35;2.15;;;;;;;10.78;77.03;97815.16;5050796;28;20049;-63
2021/12/01 03:20:42;;;;;;;4.88;2.28;;;;;;;10.75;77.09;97811.94;5049545;28;20053;-63
2021/12/01 03:23:09;;;;;;;2.35;2.20;;;;;;;10.75;77.26;97812.78;5051006;28;20122;-64
2021/12/01 03:25:36;;;;;;;2.30;2.10;;;;;;;10.72;77.00;97810.44;5050760;28;20059;-63
2021/12/01 03:28:05;;;;;;;2.42;2.22;;;;;;;10.70;77.11;97812.38;5049301;28;20048;-63
2021/12/01 03:30:33;;;;;;;2.45;2.25;;;;;;;10.71;77.13;97781.63;5050832;28;20060;-64
2021/12/01 03:33:01;;;;;;;2.25;2.13;;;;;;;10.66;77.21;97788.13;5050888;28;20053;-63
2021/12/01 03:35:28;;;;;;;2.40;2.20;;;;;;;10.66;77.29;97782.84;5049730;28;20045;-63
2021/12/01 03:37:55;;;;;;;4.03;2.53;;;;;;;10.67;77.03;97778.44;5050199;28;20117;-63
2021/12/01 03:40:22;;;;;;;2.70;2.50;;;;;;;10.67;77.09;97788.97;5050612;28;20064;-63
2021/12/01 03:42:49;;;;;;;2.70;2.50;;;;;;;10.66;77.11;97768.88;5050366;28;20064;-63
2021/12/01 03:45:16;;;;;;;2.97;2.75;;;;;;;10.67;77.03;97762.66;5049655;28;20057;-65
2021/12/01 03:47:43;;;;;;;2.67;2.47;;;;;;;10.66;77.09;97766.25;5050694;28;20045;-64
2021/12/01 03:50:10;;;;;;;3.33;3.03;;;;;;;10.63;77.15;97763.88;5050330;28;20049;-64
2021/12/01 03:52:38;;;;;;;3.05;2.85;;;;;;;10.61;77.19;97753.50;5049100;28;20476;-63
2021/12/01 03:55:05;;;;;;;4.88;3.00;;;;;;;10.61;77.22;97761.41;5049074;28;20044;-63
2021/12/01 03:57:32;;;;;;;3.40;2.70;;;;;;;10.62;76.99;97754.34;5050311;28;20077;-64
2021/12/01 03:59:59;;;;;;;2.97;2.70;;;;;;;10.61;77.10;97747.44;5050402;28;20099;-64
2021/12/01 04:02:26;;;;;;;4.18;2.42;;;;;;;10.59;77.13;97771.25;5050461;28;20114;-63
2021/12/01 04:04:54;;;;;;;2.75;2.55;;;;;;;10.59;77.24;97723.88;5048997;28;20049;-64
2021/12/01 04:07:20;;;;;;;2.97;2.65;;;;;;;10.60;77.12;97727.31;5050492;28;20056;-66
2021/12/01 04:09:47;;;;;;;2.78;2.58;;;;;;;10.60;77.12;97714.16;5050148;28;20065;-62
2021/12/01 04:12:14;;;;;;;2.65;2.45;;;;;;;10.59;77.08;97718.63;5050159;28;20052;-63
2021/12/01 04:14:40;;;;;;;2.67;2.47;;;;;;;10.62;76.90;97688.56;5050555;28;20487;-63
2021/12/01 04:17:07;;;;;;;2.65;2.45;;;;;;;10.60;76.66;97695.75;5050616;28;20057;-64
2021/12/01 04:19:34;;;;;;;2.88;2.53;;;;;;;10.61;76.73;97694.81;5048791;28;20049;-63
2021/12/01 04:22:00;;;;;;;2.30;2.13;;;;;;;10.61;76.72;97695.63;5050251;28;20049;-63
2021/12/01 04:24:27;;;;;;;3.33;2.60;;;;;;;10.55;76.85;97685.66;5050001;28;20061;-64
2021/12/01 04:26:54;;;;;;;3.40;2.80;;;;;;;10.54;76.67;97703.25;5050524;28;20451;-63
2021/12/01 04:29:21;;;;;;;2.75;2.55;;;;;;;10.55;76.77;97678.59;5050115;28;20064;-64
2021/12/01 04:31:49;;;;;;;3.35;3.05;;;;;;;10.54;76.85;97657.66;5050316;28;20056;-63
2021/12/01 04:34:16;;;;;;;3.50;2.58;;;;;;;10.51;76.71;97653.53;5050141;28;20044;-64
2021/12/01 04:36:44;;;;;;;3.08;2.80;;;;;;;10.50;76.55;97665.03;5048969;28;20056;-64
2021/12/01 04:39:13;;;;;;;2.97;2.75;;;;;;;10.48;76.49;97666.97;5049566;28;20405;-64
2021/12/01 04:41:55;;;;;;;3.00;2.70;;;;;;;10.49;76.55;97649.38;5050131;28;20049;-64
2021/12/01 04:44:24;;;;;;;4.87;2.93;;;;;;;10.46;76.64;97645.22;5050279;28;20064;-64
2021/12/01 04:46:56;;;;;;;3.40;2.88;;;;;;;10.43;76.39;97666.50;5048430;28;20376;-64
2021/12/01 04:49:25;;;;;;;2.90;2.70;;;;;;;10.42;76.50;97634.13;5049439;28;20139;-65
2021/12/01 04:51:56;;;;;;;3.08;2.80;;;;;;;10.43;76.38;97634.94;5052674;28;20048;-65
2021/12/01 04:54:25;;;;;;;5.63;3.75;;;;;;;10.42;76.36;97649.06;5052541;28;20052;-63
2021/12/01 04:56:53;;;;;;;3.22;3.00;;;;;;;10.39;76.34;97649.38;5053868;28;20064;-65
2021/12/01 04:59:22;;;;;;;3.00;2.70;;;;;;;10.37;76.55;97619.72;5052115;28;20130;-62
2021/12/01 05:01:55;;;;;;;3.33;2.97;;;;;;;10.34;76.42;97610.31;5053575;28;20419;-63
2021/12/01 05:04:23;;;;;;;2.97;2.70;;;;;;;10.33;76.44;97602.56;5053125;28;20740;-63
2021/12/01 05:06:51;;;;;;;3.13;2.83;;;;;;;10.29;76.42;97588.88;5052220;28;20057;-63
2021/12/01 05:09:18;;;;;;;5.15;2.22;;;;;;;10.31;76.56;97594.81;5053014;28;20045;-64
2021/12/01 05:11:45;;;;;;;2.40;2.20;;;;;;;10.28;76.58;97585.41;5052479;28;20468;-64
2021/12/01 05:14:12;;;;;;;2.50;2.17;;;;;;;10.24;76.39;97596.38;5052944;28;20056;-63
2021/12/01 05:16:41;;;;;;;3.33;2.30;;;;;;;10.21;76.43;97573.78;5051761;28;20056;-63
2021/12/01 05:19:10;;;;;;;3.28;2.65;;;;;;;10.16;76.38;97565.50;5053154;28;20142;-63
2021/12/01 05:21:37;;;;;;;2.75;2.55;;;;;;;10.14;76.56;97581.41;5052283;28;20390;-64
2021/12/01 05:24:04;;;;;;;2.80;2.60;;;;;;;10.12;76.40;97575.47;5051752;28;20053;-64
2021/12/01 05:26:31;;;;;;;4.25;2.67;;;;;;;10.10;76.42;97553.72;5051818;28;20060;-63
2021/12/01 05:28:58;;;;;;;2.92;2.47;;;;;;;10.08;76.50;97555.69;5052718;28;20060;-64
2021/12/01 05:31:25;;;;;;;3.20;2.90;;;;;;;10.07;76.53;97537.41;5052358;28;20060;-64
2021/12/01 05:33:52;;;;;;;3.10;2.80;;;;;;;10.05;76.23;97537.56;5051954;28;20088;-62
2021/12/01 05:36:19;;;;;;;4.13;2.80;;;;;;;10.04;76.62;97559.56;5051982;28;20053;-64
2021/12/01 05:38:46;;;;;;;3.90;3.20;;;;;;;9.97;76.43;97525.13;5050928;28;20053;-64
2021/12/01 05:41:13;;;;;;;3.78;3.42;;;;;;;10.00;76.50;97511.69;5051251;28;20052;-64
2021/12/01 05:43:40;;;;;;;4.38;3.97;;;;;;;9.90;75.99;97531.88;5052852;28;20049;-64
2021/12/01 05:46:06;;;;;;;4.30;3.90;;;;;;;9.95;76.43;97490.28;5052696;28;20481;-63
2021/12/01 05:48:33;;;;;;;4.47;4.07;;;;;;;9.93;76.37;97497.44;5051425;28;20060;-63
2021/12/01 05:51:00;;;;;;;4.88;4.38;;;;;;;9.92;76.36;97482.66;5051222;28;20064;-63
2021/12/01 05:53:27;;;;;;;5.40;4.90;;;;;;;9.92;76.24;97495.81;5052577;28;20509;-64
2021/12/01 05:55:56;;;;;;;5.20;4.78;;;;;;;9.92;76.00;97474.78;5052452;28;20053;-64
2021/12/01 05:58:23;;;;;;;5.70;5.03;;;;;;;9.90;76.03;97480.16;5051156;28;20049;-63
2021/12/01 06:00:49;;;;;;;5.43;4.93;;;;;;;9.90;76.07;97466.19;5051622;28;20049;-64
2021/12/01 06:03:16;;;;;;;6.03;5.40;;;;;;;9.92;75.89;97448.50;5052522;28;20041;-63
2021/12/01 06:05:44;;;;;;;6.30;4.95;;;;;;;9.95;76.05;97442.97;5052647;28;20100;-63
2021/12/01 06:08:11;;;;;;;6.88;5.65;;;;;;;9.95;76.07;97452.63;5052443;28;20045;-63
2021/12/01 06:10:41;;;;;;;6.65;5.55;;;;;;;9.90;75.78;97424.13;5050717;28;20063;-64
2021/12/01 06:13:09;;;;;;;7.68;6.45;;;;;;;9.92;75.64;97432.72;5052588;28;20049;-63
2021/12/01 06:15:36;;;;;;;6.88;5.95;;;;;;;9.92;75.54;97427.47;5052248;28;20519;-62
2021/12/01 06:18:03;;;;;;;7.00;6.10;;;;;;;9.90;75.46;97429.41;5052264;28;20080;-63
2021/12/01 06:20:29;;;;;;;6.93;5.88;;;;;;;9.87;75.45;97406.06;5051691;28;20436;-64
2021/12/01 06:22:56;;;;;;;6.70;6.00;;;;;;;9.86;75.67;97413.09;5052238;28;20048;-63
2021/12/01 06:25:23;;;;;;;6.93;6.22;;;;;;;9.86;75.61;97399.13;5052264;28;20053;-63
2021/12/01 06:27:53;;;;;;;6.45;5.85;;;;;;;9.82;75.67;97403.84;5052259;28;20084;-64
2021/12/01 06:30:21;;;;;;;7.40;6.72;;;;;;;9.80;75.60;97402.31;5050586;28;20053;-65
2021/12/01 06:32:49;;;;;;;6.68;6.03;;;;;;;9.76;75.69;97414.91;5050797;28;20048;-65
2021/12/01 06:35:17;;;;;;;6.80;6.05;;;;;;;9.72;75.82;97382.81;5050625;28;20067;-64
2021/12/01 06:37:46;;;;;;;6.75;6.05;;;;;;;9.68;75.96;97391.97;5050506;28;20064;-63
2021/12/01 06:40:14;;;;;;;7.28;5.93;;;;;;;9.67;75.69;97385.06;5050284;28;20049;-62
2021/12/01 06:42:41;;;;;;;6.28;5.70;;;;;;;9.64;76.14;97394.06;5050569;28;20052;-63
2021/12/01 06:45:09;;;;;;;6.00;5.40;;;;;;;9.62;76.12;97382.88;5050594;28;20471;-63
2021/12/01 06:47:37;;;;;;;6.75;6.05;;;;;;;9.58;76.30;97370.97;5051899;28;20447;-65
2021/12/01 06:50:04;;;;;;;6.57;5.93;;;;;;;9.58;76.27;97378.03;5051224;28;20052;-64
2021/12/01 06:52:31;;;;;;;6.45;5.85;;;;;;;9.55;76.42;97367.78;5051350;28;20048;-63
2021/12/01 06:54:59;;;;;;;6.00;5.38;;;;;;;9.54;76.31;97342.50;5051528;28;20053;-64
2021/12/01 06:57:26;;;;;;;5.80;5.20;;;;;;;9.48;76.55;97351.75;5051410;28;20051;-64
2021/12/01 06:59:53;;;;;;;5.60;5.10;;;;;;;9.49;76.60;97358.66;5050108;28;20416;-63
2021/12/01 07:02:20;;;;;;;6.50;5.90;;;;;;;9.48;76.51;97330.75;5051524;28;20060;-64
2021/12/01 07:04:46;;;;;;;5.70;5.20;;;;;;;9.46;76.56;97333.53;5051306;28;20452;-64
2021/12/01 07:07:13;;;;;;;5.78;5.05;;;;;;;9.45;76.48;97350.25;5050679;28;20060;-63
2021/12/01 07:09:44;;;;;;;5.45;4.88;;;;;;;9.44;76.62;97332.00;5051011;28;20049;-63
2021/12/01 07:12:11;;;;;;;5.30;4.80;;;;;;;9.41;76.67;97317.38;5050125;28;20063;-65
2021/12/01 07:14:38;;;;;;;4.97;4.18;;;;;;;9.37;76.75;97316.00;5050540;28;20068;-64
2021/12/01 07:17:06;;;;;;;4.55;4.10;;;;;;;9.38;76.66;97322.88;5050674;28;20402;-63
2021/12/01 07:19:33;;;;;;;6.63;4.65;;;;;;;9.33;76.87;97315.44;5049711;28;20048;-64
2021/12/01 07:22:00;;;;;;;4.82;3.75;;;;;;;9.36;76.86;97311.72;5050740;28;20550;-64
2021/12/01 07:24:29;;;;;;;4.88;3.67;;;;;;;9.35;76.84;97323.19;5051246;28;20049;-64
2021/12/01 07:26:56;;;;;;;4.60;3.42;;;;;;;9.32;76.66;97300.69;5050875;28;20049;-63
2021/12/01 07:29:24;;;;;;;4.10;3.45;;;;;;;9.32;76.80;97300.69;5050738;28;20151;-64
2021/12/01 07:31:54;;;;;;;4.55;3.30;;;;;;;9.34;76.69;97297.88;5050578;28;20048;-64
2021/12/01 07:34:21;;;;;;;3.90;3.15;;;;;;;9.33;76.67;97275.22;5050869;28;20045;-65
2021/12/01 07:36:48;;;;;;;3.53;2.80;;;;;;;9.35;76.75;97284.63;5050654;28;20459;-65
2021/12/01 07:39:20;;;;;;;3.45;2.83;;;;;;;9.35;76.56;97276.75;5050377;28;20084;-64
2021/12/01 07:41:47;;;;;;;4.57;3.03;;;;;;;9.34;76.58;97282.13;5049476;28;20128;-63
2021/12/01 07:44:14;;;;;;;3.45;2.72;;;;;;;9.34;76.68;97275.09;5050436;28;20493;-63
2021/12/01 07:46:42;;;;;;;3.63;2.72;;;;;;;9.37;76.58;97271.34;5049272;28;20045;-62
2021/12/01 07:49:09;;;;;;;2.47;2.28;;;;;;;9.36;76.84;97260.03;5050527;28;20056;-63
2021/12/01 07:51:35;;;;;;;2.60;2.40;;;;;;;9.34;76.97;97277.72;5049439;28;20413;-63
2021/12/01 07:54:02;;;;;;;2.75;2.50;;;;;;;9.31;76.88;97256.19;5050270;28;20056;-64
2021/12/01 07:56:29;;;;;;;2.78;2.50;;;;;;;9.32;76.78;97261.28;5049310;28;20061;-63
2021/12/01 07:58:55;;;;;;;2.88;2.30;;;;;;;9.30;76.97;97236.97;5050442;28;20056;-62
2021/12/01 08:01:22;;;;;;;2.30;2.10;;;;;;;9.30;77.05;97236.97;5050182;28;20385;-63
2021/12/01 08:03:49;;;;;;;4.03;2.50;;;;;;;9.31;76.87;97228.13;5049273;28;20060;-63
2021/12/01 08:06:15;;;;;;;3.08;2.30;;;;;;;9.29;77.12;97265.97;5050681;28;20495;-65
2021/12/01 08:08:42;;;;;;;2.40;2.03;;;;;;;9.31;77.11;97219.44;5049085;28;20061;-63
2021/12/01 08:11:09;;;;;;;2.20;2.00;;;;;;;9.34;77.07;97219.97;5050145;28;20060;-62
2021/12/01 08:13:35;;;;;;;4.00;2.30;;;;;;;9.33;77.06;97210.44;5050024;28;20057;-63
2021/12/01 08:16:02;;;;;;;2.90;2.47;;;;;;;9.32;77.32;97197.44;5050360;28;20401;-64
2021/12/01 08:18:29;;;;;;;2.60;2.40;;;;;;;9.32;77.15;97210.56;5050620;28;20144;-62
2021/12/01 08:20:56;;;;;;;2.47;2.28;;;;;;;9.31;77.52;97194.00;5050051;28;20041;-62
2021/12/01 08:23:22;;;;;;;2.53;2.33;;;;;;;9.32;77.30;97189.56;5051846;28;20547;-63
2021/12/01 08:25:49;;;;;;;2.83;2.63;;;;;;;9.31;77.32;97191.38;5054223;28;20045;-63
2021/12/01 08:28:16;;;;;;;2.75;2.20;;;;;;;9.35;77.51;97179.59;5054313;28;20505;-63
2021/12/01 08:30:43;;;;;;;2.63;2.38;;;;;;;9.35;77.31;97186.66;5054264;28;20075;-65
2021/12/01 08:33:10;;;;;;;2.53;2.25;;;;;;;9.37;77.33;97182.09;5054154;28;20122;-63
2021/12/01 08:35:36;;;;;;;4.75;2.50;;;;;;;9.39;77.29;97182.78;5053895;28;20048;-64
2021/12/01 08:38:03;;;;;;;2.70;2.22;;;;;;;9.40;77.55;97179.19;5052961;28;20052;-63
2021/12/01 08:40:30;;;;;;;2.10;1.90;;;;;;;9.43;77.31;97185.94;5053638;28;20053;-63
2021/12/01 08:42:56;;;;;;;3.47;2.03;;;;;;;9.45;77.55;97168.22;5053843;28;20049;-63
2021/12/01 08:45:23;;;;;;;2.40;2.08;;;;;;;9.45;77.59;97168.22;5054097;28;20045;-62
2021/12/01 08:47:50;;;;;;;2.33;2.17;;;;;;;9.47;77.43;97167.16;5053960;28;20099;-63
2021/12/01 08:50:17;;;;;;;2.15;1.95;;;;;;;9.51;77.44;97157.16;5053517;28;20057;-63
2021/12/01 08:52:45;;;;;;;1.80;1.70;;;;;;;9.52;77.37;97148.31;5053927;28;20045;-62
2021/12/01 08:55:12;;;;;;;2.15;1.98;;;;;;;9.55;77.35;97141.94;5053635;28;20099;-63
2021/12/01 08:57:46;;;;;;;2.85;1.88;;;;;;;9.56;77.21;97141.78;5054162;28;20523;-63
2021/12/01 09:00:13;;;;;;;2.15;1.95;;;;;;;9.57;77.46;97140.81;5052393;28;20049;-63
2021/12/01 09:02:39;;;;;;;1.80;1.70;;;;;;;9.56;77.41;97143.59;5053571;28;20049;-62
2021/12/01 09:05:07;;;;;;;3.75;1.60;;;;;;;9.58;77.30;97132.00;5052169;28;20049;-63
2021/12/01 09:07:34;;;;;;;2.15;1.77;;;;;;;9.58;77.41;97125.91;5053536;28;20110;-63
2021/12/01 09:10:01;;;;;;;1.95;1.85;;;;;;;9.59;77.37;97123.13;5053367;28;20708;-62
2021/12/01 09:12:27;;;;;;;2.03;1.85;;;;;;;9.61;77.30;97110.66;5053529;28;20055;-64
2021/12/01 09:14:55;;;;;;;1.77;1.63;;;;;;;9.62;77.43;97116.75;5052253;28;20055;-63
2021/12/01 09:17:22;;;;;;;1.90;1.80;;;;;;;9.64;77.41;97104.28;5052082;28;20056;-63
2021/12/01 09:19:50;;;;;;;1.63;1.50;;;;;;;9.69;77.39;97114.38;5053001;28;20053;-63
2021/12/01 09:22:17;;;;;;;1.90;1.80;;;;;;;9.68;77.51;97105.63;5051835;28;20041;-63
2021/12/01 09:24:45;;;;;;;3.40;1.65;;;;;;;9.69;77.45;97106.47;5051947;28;20049;-63
2021/12/01 09:27:12;;;;;;;1.67;1.30;;;;;;;9.68;77.54;97116.16;5051870;28;20060;-62
2021/12/01 09:29:41;;;;;;;1.38;1.27;;;;;;;9.73;77.39;97105.22;5051579;28;20051;-63
2021/12/01 09:32:08;;;;;;;1.10;1.00;;;;;;;9.78;77.43;97122.19;5053005;28;20061;-64
2021/12/01 09:34:35;;;;;;;2.35;1.23;;;;;;;9.78;77.31;97095.91;5052139;28;20508;-63
2021/12/01 09:37:01;;;;;;;1.20;1.10;;;;;;;9.78;77.42;97119.56;5051128;28;20049;-63
2021/12/01 09:39:28;;;;;;;0.90;0.90;;;;;;;9.81;77.66;97120.22;5052478;28;20393;-63
2021/12/01 09:41:55;;;;;;;1.25;1.05;;;;;;;9.84;77.40;97101.53;5052968;28;20639;-64
2021/12/01 09:44:23;;;;;;;1.52;1.10;;;;;;;9.84;77.52;97098.91;5035383;28;20048;-63
2021/12/01 09:46:49;;;;;;;1.00;0.90;;;;;;;9.89;77.44;97088.78;5052838;28;20540;-62
2021/12/01 09:49:16;;;;;;;1.88;1.02;;;;;;;9.90;77.33;97087.81;5051403;28;20056;-63
2021/12/01 09:51:43;;;;;;;1.20;1.10;;;;;;;9.93;77.40;97091.94;5052500;28;20048;-62
2021/12/01 09:54:10;;;;;;;1.30;1.20;;;;;;;9.92;77.26;97056.97;5052838;28;20057;-65
2021/12/01 09:56:37;;;;;;;1.30;1.20;;;;;;;9.92;77.39;97064.84;5052489;28;20053;-63
2021/12/01 09:59:04;;;;;;;1.38;1.25;;;;;;;9.93;77.37;97077.00;5052418;28;20056;-65
2021/12/01 10:01:31;;;;;;;1.35;1.10;;;;;;;9.91;77.45;97069.25;5051150;28;20142;-63
2021/12/01 10:03:59;;;;;;;1.23;1.13;;;;;;;9.93;77.44;97079.63;5052445;28;20049;-63
2021/12/01 10:06:27;;;;;;;1.30;1.20;;;;;;;9.95;77.60;97055.84;5052540;28;20037;-62
2021/12/01 10:09:04;;;;;;;1.40;1.30;;;;;;;9.97;77.51;97046.81;5052235;28;20052;-62
2021/12/01 10:11:32;;;;;;;1.40;1.30;;;;;;;9.99;77.42;97044.03;5052432;28;20080;-63
2021/12/01 10:14:02;;;;;;;1.30;1.20;;;;;;;9.99;77.42;97029.09;5052226;28;20049;-63
2021/12/01 10:16:35;;;;;;;1.50;1.30;;;;;;;10.00;77.40;97038.63;5052600;28;20067;-63
2021/12/01 10:19:05;;;;;;;1.05;1.00;;;;;;;10.03;77.35;97046.19;5051094;28;20148;-63
2021/12/01 10:21:43;;;;;;;2.33;1.58;;;;;;;10.05;77.21;97022.41;5052264;28;20045;-63
2021/12/01 10:24:19;;;;;;;1.40;1.30;;;;;;;10.09;77.02;97038.72;5052074;28;20135;-62
2021/12/01 10:26:54;;;;;;;1.38;1.23;;;;;;;10.07;76.66;97020.47;5052247;28;20045;-64
2021/12/01 10:29:34;;;;;;;1.15;1.05;;;;;;;10.07;76.44;97023.09;5050636;28;20571;-64
2021/12/01 10:32:15;;;;;;;1.58;1.25;;;;;;;10.04;76.45;97032.09;5050894;28;20054;-62
2021/12/01 10:34:50;;;;;;;1.23;1.13;;;;;;;10.11;76.83;97023.59;5050546;28;20059;-63
2021/12/01 10:37:29;;;;;;;1.80;1.10;;;;;;;10.10;76.79;97009.63;5051887;28;20485;-63
2021/12/01 10:40:15;;;;;;;0.85;0.85;;;;;;;10.10;76.56;97019.31;5051472;28;20052;-63
2021/12/01 10:42:54;;;;;;;1.20;1.10;;;;;;;10.12;76.76;96991.06;5050574;28;20056;-62
2021/12/01 10:45:27;;;;;;;1.40;1.30;;;;;;;10.13;76.69;96998.81;5050407;28;20049;-63
2021/12/01 10:47:54;;;;;;;1.40;1.15;;;;;;;10.17;77.09;97005.41;5050328;28;20139;-63
2021/12/01 10:50:24;;;;;;;1.30;1.20;;;;;;;10.17;76.85;96999.34;5051325;28;20052;-63
2021/12/01 10:53:01;;;;;;;1.30;1.20;;;;;;;10.16;77.04;97016.06;5051627;28;20057;-62
2021/12/01 10:55:28;;;;;;;1.30;1.20;;;;;;;10.20;77.20;97004.28;5050302;28;20088;-63
2021/12/01 10:57:58;;;;;;;1.80;1.40;;;;;;;10.22;77.13;96994.44;5051459;28;20045;-63
2021/12/01 11:00:26;;;;;;;3.95;1.52;;;;;;;10.22;77.15;97015.47;5049921;28;20390;-63
2021/12/01 11:03:07;;;;;;;1.80;1.40;;;;;;;10.17;77.29;97002.78;5049972;28;20051;-63
2021/12/01 11:05:37;;;;;;;2.63;1.60;;;;;;;10.23;77.40;97011.88;5050121;28;20060;-63
2021/12/01 11:08:10;;;;;;;1.45;1.33;;;;;;;10.23;77.25;97017.13;5050221;28;20386;-64
2021/12/01 11:10:37;;;;;;;1.55;1.20;;;;;;;10.26;77.27;97003.69;5050917;28;20058;-63
2021/12/01 11:13:04;;;;;;;2.08;1.10;;;;;;;10.27;77.02;97009.75;5051148;28;20053;-65
2021/12/01 11:15:33;;;;;;;1.85;1.20;;;;;;;10.25;76.85;97020.41;5033249;28;20489;-63
2021/12/01 11:18:24;;;;;;;2.72;1.35;;;;;;;10.30;76.59;97002.41;5049885;28;20072;-63
2021/12/01 11:21:18;;;;;;;2.92;1.30;;;;;;;10.33;76.27;97003.88;5049620;28;20139;-64
2021/12/01 11:23:50;;;;;;;5.90;1.40;;;;;;;10.36;76.21;97000.13;5050064;28;20115;-63
2021/12/01 11:26:20;;;;;;;1.45;1.10;;;;;;;10.38;76.12;97008.66;5051003;28;20041;-63
2021/12/01 11:28:52;;;;;;;5.57;1.63;;;;;;;10.39;75.72;97000.63;5051233;28;20076;-63
2021/12/01 11:31:32;;;;;;;2.95;1.17;;;;;;;10.39;75.12;96999.81;5050589;28;20045;-63
2021/12/01 11:34:05;;;;;;;1.25;0.95;;;;;;;10.42;75.72;96996.84;5051078;28;20053;-63
2021/12/01 11:36:35;;;;;;;3.33;1.67;;;;;;;10.40;75.25;96993.56;5049866;28;20062;-63
2021/12/01 11:39:07;;;;;;;1.88;1.27;;;;;;;10.41;75.39;96990.78;5049732;28;20102;-67
2021/12/01 11:41:38;;;;;;;1.95;1.00;;;;;;;10.43;75.63;96998.50;5050593;28;20045;-63
2021/12/01 11:44:05;;;;;;;1.13;1.00;;;;;;;10.42;75.28;96996.84;5049438;28;20048;-63
2021/12/01 11:46:33;;;;;;;4.15;1.35;;;;;;;10.41;75.01;97021.50;5050592;28;20063;-62